createdAt,value
2018-02-23T00:00:37.526Z,0
2018-02-23T00:01:38.068Z,0
2018-02-23T00:02:38.617Z,0
2018-02-23T00:03:39.169Z,0
2018-02-23T00:04:39.725Z,0
2018-02-23T00:05:40.268Z,0
2018-02-23T00:06:40.810Z,0
2018-02-23T00:07:41.354Z,0
2018-02-23T00:08:41.910Z,0
2018-02-23T00:09:42.454Z,0
2018-02-23T00:10:43.000Z,0
2018-02-23T00:11:43.553Z,0
2018-02-23T00:12:44.108Z,0
2018-02-23T00:13:44.663Z,0
2018-02-23T00:14:45.215Z,0
2018-02-23T00:15:45.748Z,0
2018-02-23T00:16:46.293Z,0
2018-02-23T00:17:46.846Z,0
2018-02-23T00:18:47.391Z,0
2018-02-23T00:19:47.937Z,0
2018-02-23T00:20:48.488Z,0
2018-02-23T00:21:49.136Z,0
2018-02-23T00:22:49.732Z,0
2018-02-23T00:23:50.345Z,0
2018-02-23T00:24:50.954Z,0
2018-02-23T00:25:51.639Z,0
2018-02-23T00:26:52.243Z,0
2018-02-23T00:27:52.732Z,0
2018-02-23T00:28:53.281Z,0
2018-02-23T00:29:53.827Z,0
2018-02-23T00:30:54.415Z,0
2018-02-23T00:31:54.946Z,0
2018-02-23T00:32:55.546Z,0
2018-02-23T00:33:56.096Z,0
2018-02-23T00:34:56.657Z,0
2018-02-23T00:35:57.185Z,0
2018-02-23T00:36:57.739Z,0
2018-02-23T00:37:58.290Z,0
2018-02-23T00:38:58.842Z,0
2018-02-23T00:39:59.419Z,0
2018-02-23T00:40:59.933Z,0
2018-02-23T00:42:00.479Z,0
2018-02-23T00:43:01.038Z,0
2018-02-23T00:44:01.572Z,0
2018-02-23T00:45:02.154Z,0
2018-02-23T00:46:02.678Z,0
2018-02-23T00:47:03.228Z,0
2018-02-23T00:48:03.783Z,0
2018-02-23T00:49:04.336Z,0
2018-02-23T00:50:04.888Z,0
2018-02-23T00:51:05.433Z,0
2018-02-23T00:52:05.968Z,0
2018-02-23T00:53:06.519Z,0
2018-02-23T00:54:07.060Z,0
2018-02-23T00:55:07.607Z,0
2018-02-23T00:56:08.155Z,0
2018-02-23T00:57:08.703Z,0
2018-02-23T00:58:09.252Z,0
2018-02-23T00:59:09.806Z,0
2018-02-23T01:00:10.368Z,0
2018-02-23T01:01:55.078Z,0
2018-02-23T01:02:55.627Z,0
2018-02-23T01:03:56.183Z,0
2018-02-23T01:04:56.719Z,0
2018-02-23T01:05:57.255Z,0
2018-02-23T01:06:57.802Z,0
2018-02-23T01:07:58.364Z,0
2018-02-23T01:08:58.911Z,0
2018-02-23T01:09:59.473Z,0
2018-02-23T01:11:00.013Z,0
2018-02-23T01:12:00.555Z,0
2018-02-23T01:13:01.114Z,0
2018-02-23T01:14:01.661Z,0
2018-02-23T01:15:02.211Z,0
2018-02-23T01:16:02.757Z,0
2018-02-23T01:17:03.294Z,0
2018-02-23T01:18:03.843Z,0
2018-02-23T01:19:04.404Z,0
2018-02-23T01:20:04.954Z,0
2018-02-23T01:21:05.506Z,0
2018-02-23T01:22:06.041Z,0
2018-02-23T01:23:06.582Z,0
2018-02-23T01:24:07.129Z,0
2018-02-23T01:25:07.663Z,0
2018-02-23T01:26:08.206Z,0
2018-02-23T01:27:08.759Z,0
2018-02-23T01:28:09.308Z,0
2018-02-23T01:29:09.862Z,0
2018-02-23T01:30:10.407Z,0
2018-02-23T01:31:10.950Z,0
2018-02-23T01:32:11.493Z,0
2018-02-23T01:33:12.035Z,0
2018-02-23T01:34:12.596Z,0
2018-02-23T01:35:13.138Z,0
2018-02-23T01:36:13.665Z,0
2018-02-23T01:37:14.207Z,0
2018-02-23T01:38:14.751Z,0
2018-02-23T01:39:15.287Z,0
2018-02-23T01:40:15.842Z,0
2018-02-23T01:41:16.395Z,0
2018-02-23T01:42:16.938Z,0
2018-02-23T01:43:17.479Z,0
2018-02-23T01:44:18.040Z,0
2018-02-23T01:45:18.601Z,0
2018-02-23T01:46:19.145Z,0
2018-02-23T01:47:19.684Z,0
2018-02-23T01:48:20.230Z,0
2018-02-23T01:49:20.787Z,0
2018-02-23T01:50:21.339Z,0
2018-02-23T01:51:21.886Z,0
2018-02-23T01:52:22.442Z,0
2018-02-23T01:53:22.995Z,0
2018-02-23T01:54:23.592Z,0
2018-02-23T01:55:24.092Z,0
2018-02-23T01:56:24.629Z,0
2018-02-23T01:57:25.177Z,0
2018-02-23T01:58:25.712Z,0
2018-02-23T01:59:26.257Z,0
2018-02-23T02:00:26.822Z,0
2018-02-23T02:01:27.362Z,0
2018-02-23T02:02:27.906Z,0
2018-02-23T02:03:28.446Z,0
2018-02-23T02:04:29.013Z,0
2018-02-23T02:05:29.531Z,0
2018-02-23T02:06:30.084Z,0
2018-02-23T02:07:30.635Z,0
2018-02-23T02:08:31.188Z,0
2018-02-23T02:09:31.747Z,0
2018-02-23T02:10:32.288Z,0
2018-02-23T02:11:32.833Z,0
2018-02-23T02:12:33.371Z,0
2018-02-23T02:13:33.923Z,0
2018-02-23T02:14:34.468Z,0
2018-02-23T02:15:35.025Z,0
2018-02-23T02:16:35.595Z,0
2018-02-23T02:17:36.132Z,0
2018-02-23T02:18:36.673Z,0
2018-02-23T02:19:37.220Z,0
2018-02-23T02:20:37.778Z,0
2018-02-23T02:21:38.326Z,0
2018-02-23T02:22:38.870Z,0
2018-02-23T02:23:39.418Z,0
2018-02-23T02:24:39.989Z,0
2018-02-23T02:25:40.509Z,0
2018-02-23T02:26:41.059Z,0
2018-02-23T02:27:41.621Z,0
2018-02-23T02:28:42.162Z,0
2018-02-23T02:29:42.690Z,0
2018-02-23T02:30:43.227Z,0
2018-02-23T02:31:43.768Z,0
2018-02-23T02:32:44.323Z,0
2018-02-23T02:33:44.872Z,0
2018-02-23T02:34:45.433Z,0
2018-02-23T02:35:45.961Z,0
2018-02-23T02:36:46.528Z,0
2018-02-23T02:37:47.037Z,0
2018-02-23T02:38:47.596Z,0
2018-02-23T02:39:48.113Z,0
2018-02-23T02:40:48.651Z,0
2018-02-23T02:41:49.215Z,0
2018-02-23T02:42:49.750Z,0
2018-02-23T02:43:50.306Z,0
2018-02-23T02:44:50.863Z,0
2018-02-23T02:45:51.408Z,0
2018-02-23T02:46:51.955Z,0
2018-02-23T02:47:52.498Z,0
2018-02-23T02:48:53.067Z,0
2018-02-23T02:49:53.600Z,0
2018-02-23T02:50:54.152Z,0
2018-02-23T02:51:54.696Z,0
2018-02-23T02:52:55.241Z,0
2018-02-23T02:53:55.797Z,0
2018-02-23T02:54:56.334Z,0
2018-02-23T02:55:56.881Z,0
2018-02-23T02:56:57.416Z,0
2018-02-23T02:57:57.962Z,0
2018-02-23T02:58:58.505Z,0
2018-02-23T02:59:59.052Z,0
2018-02-23T03:00:59.599Z,0
2018-02-23T03:02:00.204Z,0
2018-02-23T03:03:00.694Z,0
2018-02-23T03:04:01.236Z,0
2018-02-23T03:05:01.776Z,0
2018-02-23T03:06:02.377Z,0
2018-02-23T03:07:02.878Z,0
2018-02-23T03:08:03.398Z,0
2018-02-23T03:09:03.951Z,0
2018-02-23T03:10:04.499Z,0
2018-02-23T03:11:05.047Z,0
2018-02-23T03:12:05.625Z,0
2018-02-23T03:13:06.171Z,0
2018-02-23T03:14:06.715Z,0
2018-02-23T03:15:07.248Z,0
2018-02-23T03:16:07.801Z,0
2018-02-23T03:17:08.345Z,0
2018-02-23T03:18:08.884Z,0
2018-02-23T03:19:09.439Z,0
2018-02-23T03:20:09.993Z,0
2018-02-23T03:21:10.562Z,0
2018-02-23T03:22:11.110Z,0
2018-02-23T03:23:11.629Z,0
2018-02-23T03:24:12.174Z,0
2018-02-23T03:25:12.718Z,0
2018-02-23T03:26:13.264Z,0
2018-02-23T03:27:13.838Z,0
2018-02-23T03:28:14.338Z,0
2018-02-23T03:29:14.876Z,0
2018-02-23T03:30:15.428Z,0
2018-02-23T03:31:15.957Z,0
2018-02-23T03:32:16.514Z,0
2018-02-23T03:33:17.057Z,0
2018-02-23T03:34:17.598Z,0
2018-02-23T03:35:18.152Z,0
2018-02-23T03:36:18.698Z,0
2018-02-23T03:37:19.235Z,0
2018-02-23T03:38:19.779Z,0
2018-02-23T03:39:20.326Z,0
2018-02-23T03:40:20.862Z,0
2018-02-23T03:41:21.414Z,0
2018-02-23T03:42:21.970Z,0
2018-02-23T03:43:22.514Z,0
2018-02-23T03:44:23.071Z,0
2018-02-23T03:45:23.617Z,0
2018-02-23T03:46:24.173Z,0
2018-02-23T03:47:24.714Z,0
2018-02-23T03:48:25.267Z,0
2018-02-23T03:49:25.808Z,0
2018-02-23T03:50:26.356Z,0
2018-02-23T03:51:26.901Z,0
2018-02-23T03:52:27.446Z,0
2018-02-23T03:53:27.981Z,0
2018-02-23T03:54:28.560Z,0
2018-02-23T03:55:29.075Z,0
2018-02-23T03:56:29.626Z,0
2018-02-23T03:57:30.159Z,0
2018-02-23T03:58:30.702Z,0
2018-02-23T03:59:31.254Z,0
2018-02-23T04:00:31.800Z,0
2018-02-23T04:01:32.351Z,0
2018-02-23T04:02:32.881Z,0
2018-02-23T04:03:33.422Z,0
2018-02-23T04:04:33.962Z,0
2018-02-23T04:05:34.504Z,0
2018-02-23T04:06:35.038Z,0
2018-02-23T04:07:35.575Z,0
2018-02-23T04:08:36.176Z,0
2018-02-23T04:09:36.684Z,0
2018-02-23T04:10:37.241Z,0
2018-02-23T04:11:37.767Z,0
2018-02-23T04:12:38.315Z,0
2018-02-23T04:13:38.861Z,0
2018-02-23T04:14:39.423Z,0
2018-02-23T04:15:39.951Z,0
2018-02-23T04:16:40.496Z,0
2018-02-23T04:17:41.031Z,0
2018-02-23T04:18:41.573Z,0
2018-02-23T04:19:42.110Z,0
2018-02-23T04:20:42.661Z,0
2018-02-23T04:21:43.218Z,0
2018-02-23T04:22:43.755Z,0
2018-02-23T04:23:44.301Z,0
2018-02-23T04:24:44.863Z,0
2018-02-23T04:25:45.389Z,0
2018-02-23T04:26:45.928Z,0
2018-02-23T04:27:46.490Z,0
2018-02-23T04:28:47.013Z,0
2018-02-23T04:29:47.557Z,0
2018-02-23T04:30:48.153Z,0
2018-02-23T04:31:48.655Z,0
2018-02-23T04:32:49.203Z,0
2018-02-23T04:33:49.803Z,0
2018-02-23T04:34:50.313Z,0
2018-02-23T04:35:50.867Z,0
2018-02-23T04:36:51.407Z,0
2018-02-23T04:37:51.958Z,0
2018-02-23T04:38:52.511Z,0
2018-02-23T04:39:53.080Z,0
2018-02-23T04:40:53.609Z,0
2018-02-23T04:41:54.145Z,0
2018-02-23T04:42:54.729Z,0
2018-02-23T04:43:55.236Z,0
2018-02-23T04:44:55.788Z,0
2018-02-23T04:45:56.334Z,0
2018-02-23T04:46:56.869Z,0
2018-02-23T04:47:57.419Z,0
2018-02-23T04:48:57.954Z,0
2018-02-23T04:49:58.504Z,0
2018-02-23T04:50:59.056Z,0
2018-02-23T04:51:59.637Z,0
2018-02-23T04:53:00.152Z,0
2018-02-23T04:54:00.686Z,0
2018-02-23T04:55:01.235Z,0
2018-02-23T04:56:01.790Z,0
2018-02-23T04:57:02.333Z,0
2018-02-23T04:58:02.867Z,0
2018-02-23T04:59:03.411Z,0
2018-02-23T05:00:03.962Z,0
2018-02-23T05:01:04.504Z,0
2018-02-23T05:02:05.049Z,0
2018-02-23T05:03:05.591Z,0
2018-02-23T05:04:06.142Z,0
2018-02-23T05:05:06.680Z,0
2018-02-23T05:06:07.234Z,0
2018-02-23T05:07:07.786Z,0
2018-02-23T05:08:08.345Z,0
2018-02-23T05:09:08.887Z,0
2018-02-23T05:10:09.451Z,0
2018-02-23T05:11:10.004Z,0
2018-02-23T05:12:10.575Z,0
2018-02-23T05:13:11.095Z,0
2018-02-23T05:14:11.647Z,0
2018-02-23T05:15:12.196Z,0
2018-02-23T05:16:12.762Z,0
2018-02-23T05:17:13.293Z,0
2018-02-23T05:18:13.826Z,0
2018-02-23T05:19:14.374Z,0
2018-02-23T05:20:14.930Z,0
2018-02-23T05:21:15.450Z,0
2018-02-23T05:22:15.997Z,0
2018-02-23T05:23:16.550Z,0
2018-02-23T05:24:17.121Z,0
2018-02-23T05:25:17.654Z,0
2018-02-23T05:26:18.176Z,0
2018-02-23T05:27:18.722Z,0
2018-02-23T05:28:19.258Z,0
2018-02-23T05:29:19.798Z,0
2018-02-23T05:30:20.341Z,0
2018-02-23T05:31:20.887Z,0
2018-02-23T05:32:21.428Z,0
2018-02-23T05:33:21.973Z,0
2018-02-23T05:34:22.511Z,0
2018-02-23T05:35:23.064Z,0
2018-02-23T05:36:23.609Z,0
2018-02-23T05:37:24.156Z,0
2018-02-23T05:38:24.709Z,0
2018-02-23T05:39:25.263Z,0
2018-02-23T05:40:25.813Z,0
2018-02-23T05:41:26.363Z,0
2018-02-23T05:42:26.910Z,0
2018-02-23T05:43:27.457Z,0
2018-02-23T05:44:28.002Z,0
2018-02-23T05:45:28.546Z,0
2018-02-23T05:46:29.091Z,0
2018-02-23T05:47:29.634Z,0
2018-02-23T05:48:30.182Z,0
2018-02-23T05:49:30.743Z,0
2018-02-23T05:50:31.306Z,0
2018-02-23T05:51:31.845Z,0
2018-02-23T05:52:32.375Z,0
2018-02-23T05:53:32.930Z,0
2018-02-23T05:54:33.470Z,0
2018-02-23T05:55:34.006Z,0
2018-02-23T05:56:34.559Z,0
2018-02-23T05:57:35.101Z,4
2018-02-23T05:58:35.653Z,4
2018-02-23T05:59:36.189Z,0
2018-02-23T06:00:36.750Z,4
2018-02-23T06:01:37.311Z,4
2018-02-23T06:02:37.851Z,4
2018-02-23T06:03:38.406Z,4
2018-02-23T06:04:38.969Z,4
2018-02-23T06:05:39.501Z,8
2018-02-23T06:06:40.057Z,12
2018-02-23T06:07:40.594Z,12
2018-02-23T06:08:41.143Z,16
2018-02-23T06:09:41.696Z,20
2018-02-23T06:10:42.237Z,24
2018-02-23T06:11:42.800Z,28
2018-02-23T06:12:43.341Z,36
2018-02-23T06:13:43.896Z,40
2018-02-23T06:14:44.443Z,48
2018-02-23T06:15:44.983Z,56
2018-02-23T06:16:45.539Z,68
2018-02-23T06:17:46.110Z,76
2018-02-23T06:18:46.642Z,88
2018-02-23T06:19:47.186Z,104
2018-02-23T06:20:47.743Z,120
2018-02-23T06:21:48.286Z,136
2018-02-23T06:22:48.855Z,156
2018-02-23T06:23:49.405Z,176
2018-02-23T06:24:49.950Z,200
2018-02-23T06:25:50.547Z,228
2018-02-23T06:26:51.068Z,252
2018-02-23T06:27:51.612Z,284
2018-02-23T06:28:52.185Z,316
2018-02-23T06:29:52.716Z,352
2018-02-23T06:30:53.257Z,388
2018-02-23T06:31:53.807Z,424
2018-02-23T06:32:54.364Z,464
2018-02-23T06:33:54.919Z,504
2018-02-23T06:34:55.472Z,548
2018-02-23T06:35:56.028Z,600
2018-02-23T06:36:56.565Z,648
2018-02-23T06:37:57.122Z,700
2018-02-23T06:38:57.695Z,752
2018-02-23T06:39:58.273Z,812
2018-02-23T06:40:58.784Z,868
2018-02-23T06:41:59.331Z,928
2018-02-23T06:42:59.875Z,988
2018-02-23T06:44:00.416Z,1052
2018-02-23T06:45:00.969Z,1124
2018-02-23T06:46:01.516Z,1188
2018-02-23T06:47:02.068Z,1260
2018-02-23T06:48:02.614Z,1328
2018-02-23T06:49:03.178Z,1404
2018-02-23T06:50:03.716Z,1480
2018-02-23T06:51:04.268Z,1564
2018-02-23T06:52:04.827Z,1652
2018-02-23T06:53:05.393Z,1740
2018-02-23T06:54:05.958Z,1828
2018-02-23T06:55:06.523Z,1916
2018-02-23T06:56:07.085Z,2008
2018-02-23T06:57:07.712Z,2096
2018-02-23T06:58:08.269Z,2188
2018-02-23T06:59:08.894Z,2284
2018-02-23T07:00:09.422Z,2388
2018-02-23T07:01:09.986Z,2492
2018-02-23T07:02:10.545Z,2588
2018-02-23T07:03:11.104Z,2676
2018-02-23T07:04:11.725Z,2760
2018-02-23T07:05:12.290Z,2844
2018-02-23T07:06:12.826Z,2936
2018-02-23T07:07:13.377Z,3032
2018-02-23T07:08:13.961Z,3116
2018-02-23T07:09:14.500Z,3208
2018-02-23T07:10:15.044Z,3308
2018-02-23T07:11:15.643Z,3420
2018-02-23T07:12:16.153Z,3528
2018-02-23T07:13:16.703Z,3636
2018-02-23T07:14:17.255Z,3760
2018-02-23T07:15:17.818Z,3944
2018-02-23T07:16:18.417Z,4144
2018-02-23T07:17:18.986Z,4268
2018-02-23T07:18:19.523Z,4648
2018-02-23T07:19:20.077Z,5060
2018-02-23T07:20:20.630Z,5236
2018-02-23T07:21:21.182Z,5392
2018-02-23T07:22:21.740Z,5180
2018-02-23T07:23:22.291Z,5152
2018-02-23T07:24:22.835Z,5484
2018-02-23T07:25:23.387Z,5224
2018-02-23T07:26:23.946Z,5480
2018-02-23T07:27:24.534Z,6112
2018-02-23T07:28:25.094Z,6344
2018-02-23T07:29:25.620Z,6460
2018-02-23T07:30:26.167Z,6628
2018-02-23T07:31:26.716Z,6768
2018-02-23T07:32:27.269Z,6804
2018-02-23T07:33:27.818Z,6968
2018-02-23T07:34:28.400Z,7156
2018-02-23T07:35:28.931Z,7344
2018-02-23T07:36:29.484Z,7484
2018-02-23T07:37:30.036Z,7592
2018-02-23T07:38:30.597Z,7800
2018-02-23T07:39:31.170Z,8020
2018-02-23T07:40:31.712Z,8244
2018-02-23T07:41:32.273Z,8504
2018-02-23T07:42:32.845Z,8736
2018-02-23T07:43:33.419Z,8748
2018-02-23T07:44:33.983Z,8928
2018-02-23T07:45:34.537Z,9204
2018-02-23T07:46:35.100Z,9384
2018-02-23T07:47:35.659Z,9400
2018-02-23T07:48:36.228Z,9396
2018-02-23T07:49:36.809Z,9540
2018-02-23T07:50:37.356Z,9856
2018-02-23T07:51:37.922Z,10044
2018-02-23T07:52:38.480Z,10096
2018-02-23T07:53:39.048Z,10204
2018-02-23T07:54:39.613Z,10496
2018-02-23T07:55:40.167Z,10732
2018-02-23T07:56:40.759Z,10884
2018-02-23T07:57:41.305Z,11076
2018-02-23T07:58:41.871Z,11212
2018-02-23T07:59:42.444Z,11260
2018-02-23T08:00:42.997Z,11564
2018-02-23T08:01:43.578Z,11776
2018-02-23T08:02:44.120Z,11968
2018-02-23T08:03:44.675Z,12088
2018-02-23T08:04:45.233Z,12268
2018-02-23T08:05:45.798Z,12552
2018-02-23T08:06:46.360Z,12588
2018-02-23T08:07:46.926Z,12584
2018-02-23T08:08:47.476Z,12836
2018-02-23T08:09:48.039Z,12972
2018-02-23T08:10:48.602Z,12800
2018-02-23T08:11:49.160Z,12624
2018-02-23T08:12:49.715Z,13008
2018-02-23T08:13:50.340Z,13584
2018-02-23T08:14:50.820Z,13964
2018-02-23T08:15:51.378Z,13916
2018-02-23T08:16:51.935Z,13792
2018-02-23T08:17:52.498Z,13992
2018-02-23T08:18:53.060Z,14324
2018-02-23T08:19:53.621Z,14796
2018-02-23T08:20:54.181Z,14840
2018-02-23T08:21:54.722Z,14492
2018-02-23T08:22:55.288Z,14488
2018-02-23T08:23:55.847Z,14924
2018-02-23T08:24:56.414Z,15504
2018-02-23T08:25:56.979Z,15304
2018-02-23T08:26:57.528Z,14740
2018-02-23T08:27:58.084Z,14196
2018-02-23T08:28:58.637Z,14756
2018-02-23T08:29:59.191Z,15460
2018-02-23T08:30:59.741Z,15244
2018-02-23T08:32:00.301Z,14100
2018-02-23T08:33:45.016Z,12756
2018-02-23T08:34:45.575Z,13748
2018-02-23T08:35:46.139Z,11732
2018-02-23T08:36:46.708Z,11272
2018-02-23T08:37:47.263Z,12812
2018-02-23T08:38:47.812Z,12296
2018-02-23T08:39:48.371Z,10088
2018-02-23T08:40:48.927Z,9480
2018-02-23T08:41:49.481Z,9212
2018-02-23T08:42:50.039Z,12068
2018-02-23T08:43:50.636Z,12144
2018-02-23T08:44:51.158Z,10792
2018-02-23T08:45:51.703Z,9588
2018-02-23T08:46:52.251Z,9480
2018-02-23T08:47:52.816Z,9068
2018-02-23T08:48:53.377Z,9592
2018-02-23T08:49:53.937Z,9784
2018-02-23T08:50:54.491Z,7872
2018-02-23T08:51:55.034Z,8284
2018-02-23T08:52:55.588Z,8708
2018-02-23T08:53:56.137Z,9148
2018-02-23T08:54:56.688Z,10324
2018-02-23T08:55:57.243Z,10272
2018-02-23T08:56:57.812Z,10992
2018-02-23T08:57:58.366Z,8440
2018-02-23T08:58:58.928Z,9048
2018-02-23T08:59:59.479Z,10472
2018-02-23T09:01:00.045Z,10712
2018-02-23T09:02:00.617Z,9508
2018-02-23T09:03:01.187Z,10288
2018-02-23T09:04:01.750Z,12524
2018-02-23T09:05:02.311Z,12456
2018-02-23T09:06:02.854Z,13468
2018-02-23T09:07:03.402Z,13916
2018-02-23T09:08:03.953Z,12656
2018-02-23T09:09:04.519Z,12100
2018-02-23T09:10:05.084Z,16072
2018-02-23T09:11:05.640Z,15188
2018-02-23T09:12:06.191Z,14928
2018-02-23T09:13:06.755Z,13744
2018-02-23T09:14:07.306Z,17616
2018-02-23T09:15:07.875Z,17676
2018-02-23T09:16:08.421Z,15652
2018-02-23T09:17:08.973Z,15580
2018-02-23T09:18:09.526Z,15888
2018-02-23T09:19:10.073Z,13344
2018-02-23T09:20:10.627Z,13528
2018-02-23T09:21:11.182Z,13000
2018-02-23T09:22:11.732Z,18380
2018-02-23T09:23:12.283Z,21472
2018-02-23T09:24:12.835Z,20832
2018-02-23T09:25:13.394Z,19008
2018-02-23T09:26:13.965Z,22496
2018-02-23T09:27:14.530Z,23424
2018-02-23T09:28:15.082Z,22016
2018-02-23T09:29:15.632Z,20640
2018-02-23T09:30:16.195Z,23424
2018-02-23T09:31:16.753Z,25312
2018-02-23T09:32:17.320Z,26944
2018-02-23T09:33:17.888Z,28832
2018-02-23T09:34:18.455Z,30208
2018-02-23T09:35:19.003Z,32224
2018-02-23T09:36:19.553Z,33120
2018-02-23T09:37:20.111Z,32960
2018-02-23T09:38:20.662Z,30944
2018-02-23T09:39:21.233Z,28512
2018-02-23T09:40:21.781Z,27840
2018-02-23T09:41:22.355Z,29312
2018-02-23T09:42:22.893Z,28960
2018-02-23T09:43:23.459Z,27936
2018-02-23T09:44:24.026Z,27136
2018-02-23T09:45:24.594Z,28128
2018-02-23T09:46:25.166Z,30464
2018-02-23T09:47:25.731Z,33024
2018-02-23T09:48:26.281Z,32896
2018-02-23T09:49:26.836Z,30368
2018-02-23T09:50:27.406Z,28672
2018-02-23T09:51:27.974Z,29056
2018-02-23T09:52:28.535Z,30752
2018-02-23T09:53:29.100Z,31968
2018-02-23T09:54:29.662Z,31648
2018-02-23T09:55:30.227Z,31008
2018-02-23T09:56:30.784Z,31616
2018-02-23T09:57:31.343Z,32512
2018-02-23T09:58:31.902Z,32928
2018-02-23T09:59:32.454Z,33184
2018-02-23T10:00:33.016Z,32736
2018-02-23T10:01:33.574Z,32320
2018-02-23T10:02:34.148Z,32448
2018-02-23T10:03:34.699Z,31968
2018-02-23T10:04:35.261Z,33088
2018-02-23T10:05:35.868Z,33984
2018-02-23T10:06:36.389Z,33440
2018-02-23T10:07:36.951Z,32544
2018-02-23T10:08:37.505Z,31712
2018-02-23T10:09:38.067Z,31648
2018-02-23T10:10:38.625Z,30848
2018-02-23T10:11:39.196Z,30624
2018-02-23T10:12:39.745Z,29760
2018-02-23T10:13:40.315Z,29440
2018-02-23T10:14:40.878Z,29760
2018-02-23T10:15:41.439Z,30176
2018-02-23T10:16:41.992Z,29728
2018-02-23T10:17:42.551Z,30112
2018-02-23T10:18:43.102Z,30560
2018-02-23T10:19:43.672Z,31008
2018-02-23T10:20:45.230Z,31616
2018-02-23T10:21:45.810Z,30752
2018-02-23T10:22:46.394Z,29856
2018-02-23T10:23:46.946Z,30080
2018-02-23T10:24:47.508Z,31680
2018-02-23T10:25:48.069Z,32896
2018-02-23T10:26:48.635Z,33440
2018-02-23T10:27:49.213Z,33568
2018-02-23T10:28:49.781Z,33536
2018-02-23T10:29:50.372Z,33696
2018-02-23T10:30:50.923Z,33824
2018-02-23T10:31:51.487Z,33984
2018-02-23T10:32:52.030Z,34112
2018-02-23T10:33:52.585Z,35712
2018-02-23T10:34:53.145Z,35424
2018-02-23T10:35:53.715Z,35200
2018-02-23T10:36:54.322Z,37120
2018-02-23T10:37:54.845Z,41120
2018-02-23T10:38:55.413Z,44704
2018-02-23T10:39:56.032Z,45696
2018-02-23T10:40:56.607Z,44832
2018-02-23T10:41:57.178Z,44160
2018-02-23T10:42:57.745Z,45600
2018-02-23T10:43:58.307Z,47168
2018-02-23T10:44:58.871Z,48192
2018-02-23T10:45:59.428Z,48832
2018-02-23T10:46:59.998Z,50432
2018-02-23T10:48:00.552Z,51040
2018-02-23T10:49:01.124Z,51264
2018-02-23T10:50:01.689Z,50784
2018-02-23T10:51:02.254Z,50208
2018-02-23T10:52:02.816Z,51200
2018-02-23T10:53:03.376Z,53408
2018-02-23T10:54:03.935Z,52096
2018-02-23T10:55:04.499Z,48832
2018-02-23T10:56:05.068Z,47232
2018-02-23T10:57:05.630Z,48160
2018-02-23T10:58:06.192Z,51168
2018-02-23T10:59:06.746Z,53632
2018-02-23T11:00:07.309Z,53440
2018-02-23T11:01:07.904Z,51040
2018-02-23T11:02:08.466Z,50432
2018-02-23T11:03:09.034Z,52448
2018-02-23T11:04:09.596Z,53536
2018-02-23T11:05:10.161Z,53408
2018-02-23T11:06:10.717Z,51584
2018-02-23T11:07:11.287Z,48992
2018-02-23T11:08:11.849Z,47520
2018-02-23T11:09:12.417Z,48864
2018-02-23T11:10:12.981Z,52128
2018-02-23T11:11:13.593Z,55232
2018-02-23T11:12:14.105Z,55360
2018-02-23T11:13:14.670Z,52192
2018-02-23T11:14:15.224Z,49856
2018-02-23T11:15:15.785Z,49440
2018-02-23T11:16:16.356Z,48704
2018-02-23T11:17:16.927Z,49568
2018-02-23T11:18:17.483Z,51360
2018-02-23T11:19:18.036Z,53952
2018-02-23T11:20:18.601Z,54368
2018-02-23T11:21:19.171Z,52992
2018-02-23T11:22:19.719Z,51904
2018-02-23T11:23:20.285Z,51904
2018-02-23T11:24:20.861Z,52224
2018-02-23T11:25:21.448Z,53760
2018-02-23T11:26:21.984Z,55104
2018-02-23T11:27:22.533Z,55328
2018-02-23T11:28:23.104Z,53056
2018-02-23T11:29:23.665Z,49760
2018-02-23T11:30:24.220Z,48832
2018-02-23T11:31:24.771Z,50368
2018-02-23T11:32:25.340Z,50880
2018-02-23T11:33:25.900Z,51168
2018-02-23T11:34:26.467Z,51936
2018-02-23T11:35:27.022Z,51808
2018-02-23T11:36:27.597Z,52000
2018-02-23T11:37:28.149Z,51488
2018-02-23T11:38:28.715Z,47904
2018-02-23T11:39:29.275Z,45152
2018-02-23T11:40:29.826Z,45664
2018-02-23T11:41:30.435Z,47296
2018-02-23T11:42:31.028Z,48384
2018-02-23T11:43:31.592Z,46240
2018-02-23T11:44:32.169Z,43136
2018-02-23T11:45:32.727Z,43008
2018-02-23T11:46:33.306Z,44960
2018-02-23T11:47:33.872Z,47520
2018-02-23T11:48:34.446Z,47552
2018-02-23T11:49:35.024Z,45792
2018-02-23T11:50:35.604Z,44032
2018-02-23T11:51:36.157Z,43360
2018-02-23T11:52:36.714Z,42368
2018-02-23T11:53:37.272Z,42144
2018-02-23T11:54:37.835Z,43168
2018-02-23T11:55:38.438Z,44928
2018-02-23T11:56:38.984Z,46656
2018-02-23T11:57:39.534Z,47008
2018-02-23T11:58:40.099Z,46496
2018-02-23T11:59:40.666Z,45760
2018-02-23T12:00:41.222Z,46432
2018-02-23T12:01:41.779Z,46656
2018-02-23T12:02:42.340Z,46560
2018-02-23T12:03:42.897Z,47328
2018-02-23T12:04:43.454Z,48608
2018-02-23T12:05:44.026Z,49440
2018-02-23T12:06:44.571Z,49760
2018-02-23T12:07:45.124Z,47616
2018-02-23T12:08:45.678Z,46432
2018-02-23T12:09:46.248Z,46048
2018-02-23T12:10:46.832Z,47328
2018-02-23T12:11:47.387Z,49312
2018-02-23T12:12:47.954Z,49600
2018-02-23T12:13:48.529Z,49664
2018-02-23T12:14:49.086Z,50336
2018-02-23T12:15:49.660Z,50048
2018-02-23T12:16:50.208Z,49312
2018-02-23T12:17:50.777Z,49120
2018-02-23T12:18:51.346Z,49760
2018-02-23T12:19:51.925Z,50400
2018-02-23T12:20:52.491Z,50432
2018-02-23T12:21:53.043Z,49472
2018-02-23T12:22:53.604Z,49472
2018-02-23T12:23:54.173Z,50496
2018-02-23T12:24:54.761Z,51040
2018-02-23T12:25:55.290Z,50304
2018-02-23T12:26:55.869Z,49152
2018-02-23T12:27:56.417Z,48352
2018-02-23T12:28:56.992Z,47552
2018-02-23T12:29:57.550Z,47328
2018-02-23T12:30:58.133Z,46656
2018-02-23T12:31:58.741Z,45888
2018-02-23T12:32:59.315Z,45920
2018-02-23T12:33:59.867Z,47104
2018-02-23T12:35:00.436Z,48832
2018-02-23T12:36:01.026Z,49920
2018-02-23T12:37:01.593Z,48768
2018-02-23T12:38:02.175Z,45856
2018-02-23T12:39:02.756Z,42176
2018-02-23T12:40:03.315Z,42496
2018-02-23T12:41:03.887Z,47456
2018-02-23T12:42:04.456Z,50752
2018-02-23T12:43:05.010Z,49216
2018-02-23T12:44:05.573Z,45856
2018-02-23T12:45:06.140Z,43616
2018-02-23T12:46:06.711Z,44672
2018-02-23T12:47:07.273Z,47168
2018-02-23T12:48:07.855Z,46048
2018-02-23T12:49:08.428Z,43584
2018-02-23T12:50:09.150Z,42304
2018-02-23T12:51:09.720Z,42720
2018-02-23T12:52:10.302Z,44416
2018-02-23T12:53:10.868Z,44832
2018-02-23T12:54:11.457Z,44064
2018-02-23T12:55:12.039Z,44768
2018-02-23T12:56:12.583Z,45792
2018-02-23T12:57:13.157Z,47840
2018-02-23T12:58:13.825Z,48928
2018-02-23T12:59:14.368Z,48096
2018-02-23T13:00:14.968Z,46912
2018-02-23T13:01:15.548Z,45888
2018-02-23T13:02:16.121Z,44896
2018-02-23T13:03:16.712Z,45376
2018-02-23T13:04:17.300Z,45952
2018-02-23T13:05:17.885Z,45280
2018-02-23T13:06:18.456Z,43968
2018-02-23T13:07:19.023Z,43520
2018-02-23T13:08:19.597Z,44192
2018-02-23T13:09:20.165Z,45344
2018-02-23T13:10:20.726Z,45216
2018-02-23T13:11:21.288Z,43392
2018-02-23T13:12:21.859Z,42080
2018-02-23T13:13:22.422Z,41952
2018-02-23T13:14:22.979Z,42432
2018-02-23T13:15:23.566Z,41952
2018-02-23T13:16:24.130Z,40288
2018-02-23T13:17:24.703Z,38560
2018-02-23T13:18:25.279Z,37344
2018-02-23T13:19:25.859Z,37600
2018-02-23T13:20:26.442Z,38880
2018-02-23T13:21:26.995Z,38368
2018-02-23T13:22:27.550Z,36128
2018-02-23T13:23:28.114Z,33792
2018-02-23T13:24:28.738Z,34208
2018-02-23T13:25:29.287Z,36736
2018-02-23T13:26:29.850Z,39648
2018-02-23T13:27:30.411Z,39488
2018-02-23T13:28:30.976Z,36736
2018-02-23T13:29:31.538Z,33312
2018-02-23T13:30:32.114Z,32320
2018-02-23T13:31:32.683Z,34848
2018-02-23T13:32:33.238Z,37248
2018-02-23T13:33:33.808Z,36928
2018-02-23T13:34:34.378Z,34624
2018-02-23T13:35:34.954Z,33376
2018-02-23T13:36:35.526Z,34368
2018-02-23T13:37:36.109Z,35776
2018-02-23T13:38:36.680Z,35552
2018-02-23T13:39:37.235Z,35360
2018-02-23T13:40:37.791Z,35040
2018-02-23T13:41:38.358Z,35008
2018-02-23T13:42:38.961Z,35520
2018-02-23T13:43:39.471Z,35872
2018-02-23T13:44:40.058Z,35296
2018-02-23T13:45:40.633Z,34944
2018-02-23T13:46:41.199Z,34048
2018-02-23T13:47:41.757Z,33024
2018-02-23T13:48:42.340Z,31392
2018-02-23T13:49:42.891Z,30688
2018-02-23T13:50:43.454Z,31840
2018-02-23T13:51:44.004Z,34304
2018-02-23T13:52:44.559Z,35680
2018-02-23T13:53:45.119Z,34144